sensor_id;sensor_type;location;lat;lon;timestamp;P1;durP1;ratioP1;P2;durP2;ratioP2
22673;SDS011;11504;43.334;21.918;2023-03-11T00:03:00;10.0;;;10.0;;
22673;SDS011;11504;43.334;21.918;2023-03-11T00:07:37;12.0;;;11.0;;
22673;SDS011;11504;43.334;21.918;2023-03-11T00:12:14;12.0;;;11.0;;
22673;SDS011;11504;43.334;21.918;2023-03-11T00:16:50;12.0;;;11.0;;
22673;SDS011;11504;43.334;21.918;2023-03-11T00:21:27;12.0;;;11.0;;
22673;SDS011;11504;43.334;21.918;2023-03-11T00:26:04;12.0;;;11.0;;
22673;SDS011;11504;43.334;21.918;2023-03-11T00:30:45;11.0;;;11.0;;
22673;SDS011;11504;43.334;21.918;2023-03-11T00:35:29;11.0;;;11.0;;
22673;SDS011;11504;43.334;21.918;2023-03-11T00:40:18;10.0;;;9.0;;
22673;SDS011;11504;43.334;21.918;2023-03-11T00:44:58;10.0;;;9.0;;
22673;SDS011;11504;43.334;21.918;2023-03-11T00:49:34;8.0;;;7.0;;
22673;SDS011;11504;43.334;21.918;2023-03-11T00:54:11;8.0;;;7.0;;
22673;SDS011;11504;43.334;21.918;2023-03-11T00:58:47;8.0;;;8.0;;
22673;SDS011;11504;43.334;21.918;2023-03-11T01:03:23;8.0;;;8.0;;
22673;SDS011;11504;43.334;21.918;2023-03-11T01:08:03;9.0;;;8.0;;
22673;SDS011;11504;43.334;21.918;2023-03-11T01:12:40;9.0;;;8.0;;
22673;SDS011;11504;43.334;21.918;2023-03-11T01:17:18;8.0;;;8.0;;
22673;SDS011;11504;43.334;21.918;2023-03-11T01:21:54;8.0;;;8.0;;
22673;SDS011;11504;43.334;21.918;2023-03-11T01:26:31;8.0;;;8.0;;
22673;SDS011;11504;43.334;21.918;2023-03-11T01:31:10;7.0;;;7.0;;
22673;SDS011;11504;43.334;21.918;2023-03-11T01:35:47;7.0;;;7.0;;
22673;SDS011;11504;43.334;21.918;2023-03-11T01:40:35;10.0;;;9.0;;
22673;SDS011;11504;43.334;21.918;2023-03-11T01:46:09;10.0;;;9.0;;
22673;SDS011;11504;43.334;21.918;2023-03-11T01:50:56;12.0;;;11.0;;
22673;SDS011;11504;43.334;21.918;2023-03-11T01:55:35;12.0;;;11.0;;
22673;SDS011;11504;43.334;21.918;2023-03-11T02:00:15;12.0;;;10.0;;
22673;SDS011;11504;43.334;21.918;2023-03-11T02:04:55;12.0;;;10.0;;
22673;SDS011;11504;43.334;21.918;2023-03-11T02:09:35;11.0;;;10.0;;
22673;SDS011;11504;43.334;21.918;2023-03-11T02:14:13;11.0;;;10.0;;
22673;SDS011;11504;43.334;21.918;2023-03-11T02:18:49;10.0;;;9.0;;
22673;SDS011;11504;43.334;21.918;2023-03-11T02:23:48;10.0;;;9.0;;
22673;SDS011;11504;43.334;21.918;2023-03-11T02:28:37;9.0;;;8.0;;
22673;SDS011;11504;43.334;21.918;2023-03-11T02:33:18;9.0;;;8.0;;
22673;SDS011;11504;43.334;21.918;2023-03-11T02:37:55;8.0;;;8.0;;
22673;SDS011;11504;43.334;21.918;2023-03-11T02:42:32;8.0;;;8.0;;
22673;SDS011;11504;43.334;21.918;2023-03-11T02:47:10;8.0;;;7.0;;
22673;SDS011;11504;43.334;21.918;2023-03-11T02:51:48;8.0;;;7.0;;
22673;SDS011;11504;43.334;21.918;2023-03-11T02:56:24;8.0;;;7.0;;
22673;SDS011;11504;43.334;21.918;2023-03-11T03:01:01;10.0;;;9.0;;
22673;SDS011;11504;43.334;21.918;2023-03-11T03:05:38;10.0;;;9.0;;
22673;SDS011;11504;43.334;21.918;2023-03-11T03:10:21;12.0;;;11.0;;
22673;SDS011;11504;43.334;21.918;2023-03-11T03:14:58;12.0;;;11.0;;
22673;SDS011;11504;43.334;21.918;2023-03-11T03:19:34;12.0;;;10.0;;
22673;SDS011;11504;43.334;21.918;2023-03-11T03:24:11;12.0;;;10.0;;
22673;SDS011;11504;43.334;21.918;2023-03-11T03:28:48;11.0;;;10.0;;
22673;SDS011;11504;43.334;21.918;2023-03-11T03:33:24;11.0;;;10.0;;
22673;SDS011;11504;43.334;21.918;2023-03-11T03:38:01;10.0;;;10.0;;
22673;SDS011;11504;43.334;21.918;2023-03-11T03:42:38;10.0;;;10.0;;
22673;SDS011;11504;43.334;21.918;2023-03-11T03:47:15;9.0;;;9.0;;
22673;SDS011;11504;43.334;21.918;2023-03-11T03:51:51;9.0;;;9.0;;
22673;SDS011;11504;43.334;21.918;2023-03-11T03:56:28;9.0;;;9.0;;
22673;SDS011;11504;43.334;21.918;2023-03-11T04:01:10;8.0;;;8.0;;
22673;SDS011;11504;43.334;21.918;2023-03-11T04:05:48;8.0;;;8.0;;
22673;SDS011;11504;43.334;21.918;2023-03-11T04:10:26;8.0;;;8.0;;
22673;SDS011;11504;43.334;21.918;2023-03-11T04:15:07;8.0;;;8.0;;
22673;SDS011;11504;43.334;21.918;2023-03-11T04:19:46;9.0;;;8.0;;
22673;SDS011;11504;43.334;21.918;2023-03-11T04:24:24;9.0;;;8.0;;
22673;SDS011;11504;43.334;21.918;2023-03-11T04:29:01;10.0;;;9.0;;
22673;SDS011;11504;43.334;21.918;2023-03-11T04:33:38;10.0;;;9.0;;
22673;SDS011;11504;43.334;21.918;2023-03-11T04:38:16;10.0;;;10.0;;
22673;SDS011;11504;43.334;21.918;2023-03-11T04:42:53;10.0;;;10.0;;
22673;SDS011;11504;43.334;21.918;2023-03-11T04:47:30;11.0;;;11.0;;
22673;SDS011;11504;43.334;21.918;2023-03-11T04:52:06;11.0;;;11.0;;
22673;SDS011;11504;43.334;21.918;2023-03-11T04:56:42;11.0;;;11.0;;
22673;SDS011;11504;43.334;21.918;2023-03-11T05:01:18;10.0;;;10.0;;
22673;SDS011;11504;43.334;21.918;2023-03-11T05:05:55;10.0;;;10.0;;
22673;SDS011;11504;43.334;21.918;2023-03-11T05:10:32;8.0;;;8.0;;
22673;SDS011;11504;43.334;21.918;2023-03-11T05:15:10;8.0;;;8.0;;
22673;SDS011;11504;43.334;21.918;2023-03-11T05:19:46;8.0;;;8.0;;
22673;SDS011;11504;43.334;21.918;2023-03-11T05:24:23;8.0;;;8.0;;
22673;SDS011;11504;43.334;21.918;2023-03-11T05:29:00;7.0;;;7.0;;
22673;SDS011;11504;43.334;21.918;2023-03-11T05:33:37;7.0;;;7.0;;
22673;SDS011;11504;43.334;21.918;2023-03-11T05:38:13;7.0;;;6.0;;
22673;SDS011;11504;43.334;21.918;2023-03-11T05:42:50;7.0;;;6.0;;
22673;SDS011;11504;43.334;21.918;2023-03-11T05:47:27;7.0;;;6.0;;
22673;SDS011;11504;43.334;21.918;2023-03-11T05:52:04;7.0;;;6.0;;
22673;SDS011;11504;43.334;21.918;2023-03-11T05:56:44;7.0;;;6.0;;
22673;SDS011;11504;43.334;21.918;2023-03-11T06:01:22;8.0;;;6.0;;
22673;SDS011;11504;43.334;21.918;2023-03-11T06:05:59;8.0;;;6.0;;
22673;SDS011;11504;43.334;21.918;2023-03-11T06:10:35;8.0;;;7.0;;
22673;SDS011;11504;43.334;21.918;2023-03-11T06:15:11;8.0;;;7.0;;
22673;SDS011;11504;43.334;21.918;2023-03-11T06:19:48;10.0;;;8.0;;
22673;SDS011;11504;43.334;21.918;2023-03-11T06:24:24;10.0;;;8.0;;
22673;SDS011;11504;43.334;21.918;2023-03-11T06:29:00;11.0;;;10.0;;
22673;SDS011;11504;43.334;21.918;2023-03-11T06:33:37;11.0;;;10.0;;
22673;SDS011;11504;43.334;21.918;2023-03-11T06:38:13;10.0;;;8.0;;
22673;SDS011;11504;43.334;21.918;2023-03-11T06:42:50;10.0;;;8.0;;
22673;SDS011;11504;43.334;21.918;2023-03-11T06:47:27;8.0;;;7.0;;
22673;SDS011;11504;43.334;21.918;2023-03-11T06:52:05;8.0;;;7.0;;
22673;SDS011;11504;43.334;21.918;2023-03-11T06:56:43;8.0;;;7.0;;
22673;SDS011;11504;43.334;21.918;2023-03-11T07:01:25;12.0;;;12.0;;
22673;SDS011;11504;43.334;21.918;2023-03-11T07:06:05;12.0;;;12.0;;
22673;SDS011;11504;43.334;21.918;2023-03-11T07:11:04;17.0;;;16.0;;
22673;SDS011;11504;43.334;21.918;2023-03-11T07:15:45;17.0;;;16.0;;
22673;SDS011;11504;43.334;21.918;2023-03-11T07:20:21;18.0;;;17.0;;
22673;SDS011;11504;43.334;21.918;2023-03-11T07:24:58;18.0;;;17.0;;
22673;SDS011;11504;43.334;21.918;2023-03-11T07:29:34;19.0;;;18.0;;
22673;SDS011;11504;43.334;21.918;2023-03-11T07:34:12;19.0;;;18.0;;
22673;SDS011;11504;43.334;21.918;2023-03-11T07:38:55;18.0;;;17.0;;
22673;SDS011;11504;43.334;21.918;2023-03-11T07:43:33;18.0;;;17.0;;
22673;SDS011;11504;43.334;21.918;2023-03-11T07:48:09;17.0;;;16.0;;
22673;SDS011;11504;43.334;21.918;2023-03-11T07:52:46;17.0;;;16.0;;
22673;SDS011;11504;43.334;21.918;2023-03-11T07:57:22;17.0;;;16.0;;
22673;SDS011;11504;43.334;21.918;2023-03-11T08:02:01;17.0;;;16.0;;
22673;SDS011;11504;43.334;21.918;2023-03-11T08:06:44;17.0;;;16.0;;
22673;SDS011;11504;43.334;21.918;2023-03-11T08:11:23;17.0;;;16.0;;
22673;SDS011;11504;43.334;21.918;2023-03-11T08:16:06;17.0;;;16.0;;
22673;SDS011;11504;43.334;21.918;2023-03-11T08:20:48;14.0;;;13.0;;
22673;SDS011;11504;43.334;21.918;2023-03-11T08:25:25;14.0;;;13.0;;
22673;SDS011;11504;43.334;21.918;2023-03-11T08:30:03;11.0;;;10.0;;
22673;SDS011;11504;43.334;21.918;2023-03-11T08:34:42;11.0;;;10.0;;
22673;SDS011;11504;43.334;21.918;2023-03-11T08:39:19;11.0;;;10.0;;
22673;SDS011;11504;43.334;21.918;2023-03-11T08:43:56;11.0;;;10.0;;
22673;SDS011;11504;43.334;21.918;2023-03-11T08:48:36;11.0;;;11.0;;
22673;SDS011;11504;43.334;21.918;2023-03-11T08:53:12;11.0;;;11.0;;
22673;SDS011;11504;43.334;21.918;2023-03-11T08:57:48;13.0;;;12.0;;
22673;SDS011;11504;43.334;21.918;2023-03-11T09:02:26;13.0;;;12.0;;
22673;SDS011;11504;43.334;21.918;2023-03-11T09:07:02;13.0;;;12.0;;
22673;SDS011;11504;43.334;21.918;2023-03-11T09:11:39;15.0;;;14.0;;
22673;SDS011;11504;43.334;21.918;2023-03-11T09:16:22;15.0;;;14.0;;
22673;SDS011;11504;43.334;21.918;2023-03-11T09:21:00;16.0;;;15.0;;
22673;SDS011;11504;43.334;21.918;2023-03-11T09:25:37;16.0;;;15.0;;
22673;SDS011;11504;43.334;21.918;2023-03-11T09:30:14;17.0;;;16.0;;
22673;SDS011;11504;43.334;21.918;2023-03-11T09:34:51;17.0;;;16.0;;
22673;SDS011;11504;43.334;21.918;2023-03-11T09:39:28;20.0;;;18.0;;
22673;SDS011;11504;43.334;21.918;2023-03-11T09:44:27;20.0;;;18.0;;
22673;SDS011;11504;43.334;21.918;2023-03-11T09:49:47;22.0;;;20.0;;
22673;SDS011;11504;43.334;21.918;2023-03-11T09:54:52;22.0;;;20.0;;
22673;SDS011;11504;43.334;21.918;2023-03-11T09:59:37;21.0;;;20.0;;
22673;SDS011;11504;43.334;21.918;2023-03-11T10:04:32;21.0;;;20.0;;
22673;SDS011;11504;43.334;21.918;2023-03-11T10:09:39;20.0;;;19.0;;
22673;SDS011;11504;43.334;21.918;2023-03-11T10:15:07;20.0;;;19.0;;
22673;SDS011;11504;43.334;21.918;2023-03-11T10:20:13;15.0;;;14.0;;
22673;SDS011;11504;43.334;21.918;2023-03-11T10:25:15;15.0;;;14.0;;
22673;SDS011;11504;43.334;21.918;2023-03-11T10:30:15;10.0;;;10.0;;
22673;SDS011;11504;43.334;21.918;2023-03-11T10:35:17;10.0;;;10.0;;
22673;SDS011;11504;43.334;21.918;2023-03-11T10:40:25;9.0;;;9.0;;
22673;SDS011;11504;43.334;21.918;2023-03-11T10:45:14;9.0;;;9.0;;
22673;SDS011;11504;43.334;21.918;2023-03-11T10:49:51;8.0;;;8.0;;
22673;SDS011;11504;43.334;21.918;2023-03-11T10:54:35;8.0;;;8.0;;
22673;SDS011;11504;43.334;21.918;2023-03-11T10:59:33;10.0;;;9.0;;
22673;SDS011;11504;43.334;21.918;2023-03-11T11:04:39;10.0;;;9.0;;
22673;SDS011;11504;43.334;21.918;2023-03-11T11:09:22;11.0;;;10.0;;
22673;SDS011;11504;43.334;21.918;2023-03-11T11:14:01;11.0;;;10.0;;
22673;SDS011;11504;43.334;21.918;2023-03-11T11:18:48;12.0;;;12.0;;
22673;SDS011;11504;43.334;21.918;2023-03-11T11:23:47;12.0;;;12.0;;
22673;SDS011;11504;43.334;21.918;2023-03-11T11:28:36;13.0;;;13.0;;
22673;SDS011;11504;43.334;21.918;2023-03-11T11:33:30;13.0;;;13.0;;
22673;SDS011;11504;43.334;21.918;2023-03-11T11:38:10;14.0;;;13.0;;
22673;SDS011;11504;43.334;21.918;2023-03-11T11:43:00;14.0;;;13.0;;
22673;SDS011;11504;43.334;21.918;2023-03-11T11:47:53;14.0;;;13.0;;
22673;SDS011;11504;43.334;21.918;2023-03-11T11:52:50;14.0;;;13.0;;
22673;SDS011;11504;43.334;21.918;2023-03-11T11:57:32;14.0;;;13.0;;
22673;SDS011;11504;43.334;21.918;2023-03-11T12:02:59;14.0;;;12.0;;
22673;SDS011;11504;43.334;21.918;2023-03-11T12:08:16;13.0;;;12.0;;
22673;SDS011;11504;43.334;21.918;2023-03-11T12:13:56;13.0;;;12.0;;
22673;SDS011;11504;43.334;21.918;2023-03-11T12:19:02;14.0;;;13.0;;
22673;SDS011;11504;43.334;21.918;2023-03-11T12:24:45;14.0;;;13.0;;
22673;SDS011;11504;43.334;21.918;2023-03-11T12:30:12;15.0;;;14.0;;
22673;SDS011;11504;43.334;21.918;2023-03-11T12:35:13;15.0;;;14.0;;
22673;SDS011;11504;43.334;21.918;2023-03-11T12:40:49;13.0;;;12.0;;
22673;SDS011;11504;43.334;21.918;2023-03-11T12:45:53;13.0;;;12.0;;
22673;SDS011;11504;43.334;21.918;2023-03-11T12:50:41;11.0;;;11.0;;
22673;SDS011;11504;43.334;21.918;2023-03-11T12:55:36;11.0;;;11.0;;
22673;SDS011;11504;43.334;21.918;2023-03-11T13:00:57;11.0;;;10.0;;
22673;SDS011;11504;43.334;21.918;2023-03-11T13:06:20;11.0;;;10.0;;
22673;SDS011;11504;43.334;21.918;2023-03-11T13:11:43;11.0;;;10.0;;
22673;SDS011;11504;43.334;21.918;2023-03-11T13:16:41;11.0;;;10.0;;
22673;SDS011;11504;43.334;21.918;2023-03-11T13:21:51;10.0;;;9.0;;
22673;SDS011;11504;43.334;21.918;2023-03-11T13:26:48;10.0;;;9.0;;
22673;SDS011;11504;43.334;21.918;2023-03-11T13:32:08;9.0;;;8.0;;
22673;SDS011;11504;43.334;21.918;2023-03-11T13:37:43;9.0;;;8.0;;
22673;SDS011;11504;43.334;21.918;2023-03-11T13:43:04;10.0;;;9.0;;
22673;SDS011;11504;43.334;21.918;2023-03-11T13:48:02;10.0;;;10.0;;
22673;SDS011;11504;43.334;21.918;2023-03-11T13:52:55;10.0;;;10.0;;
22673;SDS011;11504;43.334;21.918;2023-03-11T13:57:54;13.0;;;13.0;;
22673;SDS011;11504;43.334;21.918;2023-03-11T14:02:35;13.0;;;13.0;;
22673;SDS011;11504;43.334;21.918;2023-03-11T14:07:25;13.0;;;13.0;;
22673;SDS011;11504;43.334;21.918;2023-03-11T14:12:08;16.0;;;16.0;;
22673;SDS011;11504;43.334;21.918;2023-03-11T14:16:47;16.0;;;16.0;;
22673;SDS011;11504;43.334;21.918;2023-03-11T14:21:23;14.0;;;14.0;;
22673;SDS011;11504;43.334;21.918;2023-03-11T14:26:12;14.0;;;14.0;;
22673;SDS011;11504;43.334;21.918;2023-03-11T14:31:00;12.0;;;11.0;;
22673;SDS011;11504;43.334;21.918;2023-03-11T14:35:39;12.0;;;11.0;;
22673;SDS011;11504;43.334;21.918;2023-03-11T14:40:30;14.0;;;12.0;;
22673;SDS011;11504;43.334;21.918;2023-03-11T14:45:22;14.0;;;12.0;;
22673;SDS011;11504;43.334;21.918;2023-03-11T14:50:20;15.0;;;14.0;;
22673;SDS011;11504;43.334;21.918;2023-03-11T14:55:19;15.0;;;14.0;;
22673;SDS011;11504;43.334;21.918;2023-03-11T15:00:24;16.0;;;15.0;;
22673;SDS011;11504;43.334;21.918;2023-03-11T15:05:32;16.0;;;15.0;;
22673;SDS011;11504;43.334;21.918;2023-03-11T15:10:19;17.0;;;16.0;;
22673;SDS011;11504;43.334;21.918;2023-03-11T15:14:55;17.0;;;16.0;;
22673;SDS011;11504;43.334;21.918;2023-03-11T15:19:33;17.0;;;16.0;;
22673;SDS011;11504;43.334;21.918;2023-03-11T15:24:24;17.0;;;16.0;;
22673;SDS011;11504;43.334;21.918;2023-03-11T15:29:15;17.0;;;16.0;;
22673;SDS011;11504;43.334;21.918;2023-03-11T15:33:52;17.0;;;16.0;;
22673;SDS011;11504;43.334;21.918;2023-03-11T15:38:28;16.0;;;15.0;;
22673;SDS011;11504;43.334;21.918;2023-03-11T15:43:30;16.0;;;15.0;;
22673;SDS011;11504;43.334;21.918;2023-03-11T15:48:12;16.0;;;14.0;;
22673;SDS011;11504;43.334;21.918;2023-03-11T15:52:50;16.0;;;14.0;;
22673;SDS011;11504;43.334;21.918;2023-03-11T15:57:29;16.0;;;14.0;;
22673;SDS011;11504;43.334;21.918;2023-03-11T16:02:25;15.0;;;14.0;;
22673;SDS011;11504;43.334;21.918;2023-03-11T16:07:05;15.0;;;14.0;;
22673;SDS011;11504;43.334;21.918;2023-03-11T16:11:43;14.0;;;13.0;;
22673;SDS011;11504;43.334;21.918;2023-03-11T16:16:20;14.0;;;13.0;;
22673;SDS011;11504;43.334;21.918;2023-03-11T16:20:57;14.0;;;14.0;;
22673;SDS011;11504;43.334;21.918;2023-03-11T16:25:39;14.0;;;14.0;;
22673;SDS011;11504;43.334;21.918;2023-03-11T16:30:18;15.0;;;14.0;;
22673;SDS011;11504;43.334;21.918;2023-03-11T16:34:55;15.0;;;14.0;;
22673;SDS011;11504;43.334;21.918;2023-03-11T16:39:33;15.0;;;14.0;;
22673;SDS011;11504;43.334;21.918;2023-03-11T16:44:11;15.0;;;14.0;;
22673;SDS011;11504;43.334;21.918;2023-03-11T16:48:48;15.0;;;14.0;;
22673;SDS011;11504;43.334;21.918;2023-03-11T16:53:25;15.0;;;14.0;;
22673;SDS011;11504;43.334;21.918;2023-03-11T16:58:02;18.0;;;16.0;;
22673;SDS011;11504;43.334;21.918;2023-03-11T17:02:38;18.0;;;16.0;;
22673;SDS011;11504;43.334;21.918;2023-03-11T17:07:14;18.0;;;16.0;;
22673;SDS011;11504;43.334;21.918;2023-03-11T17:11:51;21.0;;;17.0;;
22673;SDS011;11504;43.334;21.918;2023-03-11T17:16:27;21.0;;;17.0;;
22673;SDS011;11504;43.334;21.918;2023-03-11T17:21:07;18.0;;;16.0;;
22673;SDS011;11504;43.334;21.918;2023-03-11T17:25:48;18.0;;;16.0;;
22673;SDS011;11504;43.334;21.918;2023-03-11T17:30:25;16.0;;;15.0;;
22673;SDS011;11504;43.334;21.918;2023-03-11T17:35:02;16.0;;;15.0;;
22673;SDS011;11504;43.334;21.918;2023-03-11T17:39:41;16.0;;;15.0;;
22673;SDS011;11504;43.334;21.918;2023-03-11T17:44:17;16.0;;;15.0;;
22673;SDS011;11504;43.334;21.918;2023-03-11T17:48:54;16.0;;;15.0;;
22673;SDS011;11504;43.334;21.918;2023-03-11T17:53:31;16.0;;;15.0;;
22673;SDS011;11504;43.334;21.918;2023-03-11T17:58:08;18.0;;;16.0;;
22673;SDS011;11504;43.334;21.918;2023-03-11T18:02:45;18.0;;;16.0;;
22673;SDS011;11504;43.334;21.918;2023-03-11T18:07:22;18.0;;;16.0;;
22673;SDS011;11504;43.334;21.918;2023-03-11T18:11:59;20.0;;;18.0;;
22673;SDS011;11504;43.334;21.918;2023-03-11T18:16:35;20.0;;;18.0;;
22673;SDS011;11504;43.334;21.918;2023-03-11T18:21:18;22.0;;;20.0;;
22673;SDS011;11504;43.334;21.918;2023-03-11T18:25:58;22.0;;;20.0;;
22673;SDS011;11504;43.334;21.918;2023-03-11T18:30:37;24.0;;;23.0;;
22673;SDS011;11504;43.334;21.918;2023-03-11T18:35:14;24.0;;;23.0;;
22673;SDS011;11504;43.334;21.918;2023-03-11T18:39:50;25.0;;;24.0;;
22673;SDS011;11504;43.334;21.918;2023-03-11T18:44:26;25.0;;;24.0;;
22673;SDS011;11504;43.334;21.918;2023-03-11T18:49:03;26.0;;;24.0;;
22673;SDS011;11504;43.334;21.918;2023-03-11T18:53:40;26.0;;;24.0;;
22673;SDS011;11504;43.334;21.918;2023-03-11T18:58:17;26.0;;;25.0;;
22673;SDS011;11504;43.334;21.918;2023-03-11T19:02:54;26.0;;;25.0;;
22673;SDS011;11504;43.334;21.918;2023-03-11T19:07:30;26.0;;;25.0;;
22673;SDS011;11504;43.334;21.918;2023-03-11T19:12:07;27.0;;;26.0;;
22673;SDS011;11504;43.334;21.918;2023-03-11T19:16:43;27.0;;;26.0;;
22673;SDS011;11504;43.334;21.918;2023-03-11T19:21:22;24.0;;;24.0;;
22673;SDS011;11504;43.334;21.918;2023-03-11T19:25:59;24.0;;;24.0;;
22673;SDS011;11504;43.334;21.918;2023-03-11T19:30:36;22.0;;;21.0;;
22673;SDS011;11504;43.334;21.918;2023-03-11T19:35:13;22.0;;;21.0;;
22673;SDS011;11504;43.334;21.918;2023-03-11T19:39:50;20.0;;;19.0;;
22673;SDS011;11504;43.334;21.918;2023-03-11T19:44:26;20.0;;;19.0;;
22673;SDS011;11504;43.334;21.918;2023-03-11T19:49:03;18.0;;;17.0;;
22673;SDS011;11504;43.334;21.918;2023-03-11T19:53:40;18.0;;;17.0;;
22673;SDS011;11504;43.334;21.918;2023-03-11T19:58:18;18.0;;;17.0;;
22673;SDS011;11504;43.334;21.918;2023-03-11T20:02:59;18.0;;;17.0;;
22673;SDS011;11504;43.334;21.918;2023-03-11T20:07:36;18.0;;;17.0;;
22673;SDS011;11504;43.334;21.918;2023-03-11T20:12:13;18.0;;;17.0;;
22673;SDS011;11504;43.334;21.918;2023-03-11T20:16:51;18.0;;;17.0;;
22673;SDS011;11504;43.334;21.918;2023-03-11T20:21:28;18.0;;;17.0;;
22673;SDS011;11504;43.334;21.918;2023-03-11T20:26:10;18.0;;;17.0;;
22673;SDS011;11504;43.334;21.918;2023-03-11T20:30:52;18.0;;;17.0;;
22673;SDS011;11504;43.334;21.918;2023-03-11T20:35:29;18.0;;;17.0;;
22673;SDS011;11504;43.334;21.918;2023-03-11T20:40:10;25.0;;;23.0;;
22673;SDS011;11504;43.334;21.918;2023-03-11T20:44:54;25.0;;;23.0;;
22673;SDS011;11504;43.334;21.918;2023-03-11T20:49:31;32.0;;;29.0;;
22673;SDS011;11504;43.334;21.918;2023-03-11T20:54:07;32.0;;;29.0;;
22673;SDS011;11504;43.334;21.918;2023-03-11T20:58:46;42.0;;;38.0;;
22673;SDS011;11504;43.334;21.918;2023-03-11T21:03:23;42.0;;;38.0;;
22673;SDS011;11504;43.334;21.918;2023-03-11T21:07:59;42.0;;;38.0;;
22673;SDS011;11504;43.334;21.918;2023-03-11T21:12:35;53.0;;;47.0;;
22673;SDS011;11504;43.334;21.918;2023-03-11T21:17:12;53.0;;;47.0;;
22673;SDS011;11504;43.334;21.918;2023-03-11T21:21:48;56.0;;;50.0;;
22673;SDS011;11504;43.334;21.918;2023-03-11T21:26:25;56.0;;;50.0;;
22673;SDS011;11504;43.334;21.918;2023-03-11T21:31:08;60.0;;;52.0;;
22673;SDS011;11504;43.334;21.918;2023-03-11T21:35:53;60.0;;;52.0;;
22673;SDS011;11504;43.334;21.918;2023-03-11T21:40:33;64.0;;;58.0;;
22673;SDS011;11504;43.334;21.918;2023-03-11T21:45:11;64.0;;;58.0;;
22673;SDS011;11504;43.334;21.918;2023-03-11T21:49:48;68.0;;;65.0;;
22673;SDS011;11504;43.334;21.918;2023-03-11T21:54:25;68.0;;;65.0;;
22673;SDS011;11504;43.334;21.918;2023-03-11T21:59:02;52.0;;;48.0;;
22673;SDS011;11504;43.334;21.918;2023-03-11T22:03:39;52.0;;;48.0;;
22673;SDS011;11504;43.334;21.918;2023-03-11T22:08:16;35.0;;;32.0;;
22673;SDS011;11504;43.334;21.918;2023-03-11T22:12:52;35.0;;;32.0;;
22673;SDS011;11504;43.334;21.918;2023-03-11T22:17:29;35.0;;;32.0;;
22673;SDS011;11504;43.334;21.918;2023-03-11T22:22:05;36.0;;;34.0;;
22673;SDS011;11504;43.334;21.918;2023-03-11T22:26:42;36.0;;;34.0;;
22673;SDS011;11504;43.334;21.918;2023-03-11T22:31:18;38.0;;;36.0;;
22673;SDS011;11504;43.334;21.918;2023-03-11T22:35:56;38.0;;;36.0;;
22673;SDS011;11504;43.334;21.918;2023-03-11T22:40:33;32.0;;;30.0;;
22673;SDS011;11504;43.334;21.918;2023-03-11T22:45:10;32.0;;;30.0;;
22673;SDS011;11504;43.334;21.918;2023-03-11T22:49:47;25.0;;;24.0;;
22673;SDS011;11504;43.334;21.918;2023-03-11T22:54:24;25.0;;;24.0;;
22673;SDS011;11504;43.334;21.918;2023-03-11T22:59:01;24.0;;;24.0;;
22673;SDS011;11504;43.334;21.918;2023-03-11T23:03:38;24.0;;;24.0;;
22673;SDS011;11504;43.334;21.918;2023-03-11T23:08:18;24.0;;;23.0;;
22673;SDS011;11504;43.334;21.918;2023-03-11T23:12:54;24.0;;;23.0;;
22673;SDS011;11504;43.334;21.918;2023-03-11T23:17:31;24.0;;;23.0;;
22673;SDS011;11504;43.334;21.918;2023-03-11T23:22:08;23.0;;;22.0;;
22673;SDS011;11504;43.334;21.918;2023-03-11T23:26:44;23.0;;;22.0;;
22673;SDS011;11504;43.334;21.918;2023-03-11T23:31:24;22.0;;;21.0;;
22673;SDS011;11504;43.334;21.918;2023-03-11T23:36:09;22.0;;;21.0;;
22673;SDS011;11504;43.334;21.918;2023-03-11T23:40:49;28.0;;;26.0;;
22673;SDS011;11504;43.334;21.918;2023-03-11T23:45:26;28.0;;;26.0;;
22673;SDS011;11504;43.334;21.918;2023-03-11T23:50:04;33.0;;;30.0;;
22673;SDS011;11504;43.334;21.918;2023-03-11T23:54:41;33.0;;;30.0;;
22673;SDS011;11504;43.334;21.918;2023-03-11T23:59:18;32.0;;;29.0;;
